createdAt,value
2018-12-21T00:00:47.395Z,100973.69
2018-12-21T00:03:16.177Z,100974.23
2018-12-21T00:05:45.100Z,100974.73
2018-12-21T00:08:13.904Z,100974.55
2018-12-21T00:10:42.763Z,100968.75
2018-12-21T00:13:11.815Z,100964.39
2018-12-21T00:15:40.923Z,100965.87
2018-12-21T00:18:09.845Z,100963.84
2018-12-21T00:20:38.786Z,100957.36
2018-12-21T00:23:07.596Z,100965.71
2018-12-21T00:25:36.451Z,100964.62
2018-12-21T00:28:05.308Z,100956.88
2018-12-21T00:30:33.244Z,100947.41
2018-12-21T00:33:07.543Z,100952.97
2018-12-21T00:35:41.384Z,100943.89
2018-12-21T00:38:18.389Z,100950.91
2018-12-21T00:40:52.165Z,100949.59
2018-12-21T00:43:35.651Z,100939.44
2018-12-21T00:46:13.725Z,100946.00
2018-12-21T00:48:42.705Z,100939.66
2018-12-21T00:51:11.536Z,100943.11
2018-12-21T00:53:41.093Z,100942.73
2018-12-21T00:56:10.140Z,100939.36
2018-12-21T00:58:38.802Z,100939.13
2018-12-21T01:01:07.693Z,100941.06
2018-12-21T01:03:36.584Z,100940.53
2018-12-21T01:06:05.452Z,100937.01
2018-12-21T01:08:34.112Z,100943.02
2018-12-21T01:11:02.976Z,100937.41
2018-12-21T01:13:31.824Z,100932.25
2018-12-21T01:16:00.475Z,100936.67
2018-12-21T01:18:29.287Z,100932.86
2018-12-21T01:20:58.179Z,100936.76
2018-12-21T01:23:27.079Z,100933.88
2018-12-21T01:25:55.995Z,100931.81
2018-12-21T01:28:24.839Z,100931.44
2018-12-21T01:30:53.613Z,100926.30
2018-12-21T01:33:22.559Z,100927.76
2018-12-21T01:35:51.327Z,100927.78
2018-12-21T01:38:20.003Z,100925.10
2018-12-21T01:40:48.834Z,100921.83
2018-12-21T01:43:17.528Z,100927.21
2018-12-21T01:45:46.354Z,100920.63
2018-12-21T01:48:15.125Z,100919.32
2018-12-21T01:50:43.917Z,100919.95
2018-12-21T01:53:12.628Z,100928.31
2018-12-21T01:55:41.411Z,100925.45
2018-12-21T01:58:11.424Z,100923.40
2018-12-21T02:00:41.262Z,100926.75
2018-12-21T02:03:10.076Z,100927.67
2018-12-21T02:05:38.760Z,100923.55
2018-12-21T02:08:07.486Z,100924.81
2018-12-21T02:10:36.271Z,100919.70
2018-12-21T02:13:04.962Z,100915.70
2018-12-21T02:15:33.654Z,100916.48
2018-12-21T02:18:02.495Z,100912.03
2018-12-21T02:20:31.472Z,100909.70
2018-12-21T02:23:00.150Z,100903.73
2018-12-21T02:25:28.974Z,100902.50
2018-12-21T02:27:57.679Z,100898.68
2018-12-21T02:30:26.421Z,100893.53
2018-12-21T02:32:55.337Z,100890.87
2018-12-21T02:35:24.023Z,100889.86
2018-12-21T02:37:52.685Z,100881.80
2018-12-21T02:40:21.492Z,100887.58
2018-12-21T02:42:50.180Z,100881.48
2018-12-21T02:45:18.893Z,100887.98
2018-12-21T02:47:47.607Z,100881.97
2018-12-21T02:50:16.321Z,100879.23
2018-12-21T02:52:44.978Z,100877.89
2018-12-21T02:55:13.719Z,100878.21
2018-12-21T02:57:42.352Z,100872.89
2018-12-21T03:00:11.573Z,100869.16
2018-12-21T03:02:41.360Z,100867.69
2018-12-21T03:05:10.094Z,100866.97
2018-12-21T03:07:38.781Z,100864.85
2018-12-21T03:10:08.346Z,100862.43
2018-12-21T03:12:37.051Z,100857.73
2018-12-21T03:15:06.593Z,100856.12
2018-12-21T03:17:35.458Z,100859.62
2018-12-21T03:20:04.381Z,100853.52
2018-12-21T03:22:33.020Z,100857.73
2018-12-21T03:25:01.960Z,100853.75
2018-12-21T03:27:30.636Z,100851.09
2018-12-21T03:29:59.377Z,100846.27
2018-12-21T03:32:28.223Z,100853.06
2018-12-21T03:34:56.914Z,100843.47
2018-12-21T03:37:25.695Z,100843.20
2018-12-21T03:39:54.483Z,100838.76
2018-12-21T03:42:23.192Z,100832.25
2018-12-21T03:44:51.901Z,100831.20
2018-12-21T03:47:20.761Z,100824.56
2018-12-21T03:49:49.434Z,100818.30
2018-12-21T03:52:24.125Z,100821.52
2018-12-21T03:54:48.867Z,100814.38
2018-12-21T03:57:17.550Z,100810.97
2018-12-21T03:59:46.249Z,100807.53
2018-12-21T04:02:15.377Z,100803.55
2018-12-21T04:04:44.036Z,100794.94
2018-12-21T04:07:12.791Z,100790.52
2018-12-21T04:09:41.553Z,100789.27
2018-12-21T04:12:11.295Z,100789.96
2018-12-21T04:14:40.079Z,100790.03
2018-12-21T04:17:08.940Z,100790.73
2018-12-21T04:19:37.725Z,100784.01
2018-12-21T04:22:06.541Z,100783.88
2018-12-21T04:24:35.461Z,100778.39
2018-12-21T04:27:04.221Z,100778.02
2018-12-21T04:29:33.043Z,100779.80
2018-12-21T04:32:01.930Z,100772.14
2018-12-21T04:34:30.716Z,100774.64
2018-12-21T04:36:59.426Z,100773.88
2018-12-21T04:39:28.289Z,100760.68
2018-12-21T04:41:56.971Z,100754.67
2018-12-21T04:44:25.709Z,100758.57
2018-12-21T04:46:54.631Z,100751.06
2018-12-21T04:49:23.316Z,100754.44
2018-12-21T04:51:51.997Z,100757.00
2018-12-21T04:54:20.686Z,100756.59
2018-12-21T04:56:49.346Z,100753.89
2018-12-21T04:59:17.977Z,100748.33
2018-12-21T05:01:46.778Z,100742.64
2018-12-21T05:04:20.224Z,100733.56
2018-12-21T05:06:46.166Z,100733.48
2018-12-21T05:09:15.905Z,100737.56
2018-12-21T05:11:44.611Z,100731.47
2018-12-21T05:14:13.331Z,100731.70
2018-12-21T05:16:42.271Z,100727.00
2018-12-21T05:19:11.346Z,100722.18
2018-12-21T05:21:40.156Z,100723.31
2018-12-21T05:24:09.099Z,100718.00
2018-12-21T05:26:37.797Z,100720.51
2018-12-21T05:29:06.549Z,100714.66
2018-12-21T05:31:35.289Z,100715.49
2018-12-21T05:34:04.013Z,100714.48
2018-12-21T05:36:32.792Z,100706.98
2018-12-21T05:39:01.553Z,100700.72
2018-12-21T05:41:30.627Z,100692.83
2018-12-21T05:43:59.334Z,100696.36
2018-12-21T05:46:28.206Z,100695.12
2018-12-21T05:48:57.014Z,100686.28
2018-12-21T05:51:25.804Z,100681.25
2018-12-21T05:53:54.715Z,100685.01
2018-12-21T05:56:23.486Z,100670.48
2018-12-21T05:58:52.254Z,100660.41
2018-12-21T06:01:21.083Z,100655.73
2018-12-21T06:03:49.844Z,100652.61
2018-12-21T06:06:18.600Z,100651.29
2018-12-21T06:08:47.645Z,100649.00
2018-12-21T06:11:16.402Z,100645.25
2018-12-21T06:13:45.193Z,100639.84
2018-12-21T06:16:14.092Z,100633.11
2018-12-21T06:18:42.776Z,100634.91
2018-12-21T06:21:11.465Z,100642.12
2018-12-21T06:23:40.273Z,100632.19
2018-12-21T06:26:09.064Z,100626.32
2018-12-21T06:28:37.742Z,100622.34
2018-12-21T06:31:06.597Z,100616.16
2018-12-21T06:33:35.303Z,100618.95
2018-12-21T06:36:03.968Z,100612.30
2018-12-21T06:38:32.831Z,100617.62
2018-12-21T06:41:01.468Z,100609.38
2018-12-21T06:43:30.299Z,100605.70
2018-12-21T06:45:59.434Z,100597.97
2018-12-21T06:48:28.244Z,100596.45
2018-12-21T06:50:56.972Z,100591.70
2018-12-21T06:53:25.827Z,100595.68
2018-12-21T06:55:54.558Z,100598.38
2018-12-21T06:58:23.398Z,100589.94
2018-12-21T07:00:52.364Z,100579.59
2018-12-21T07:03:21.182Z,100576.29
2018-12-21T07:05:49.976Z,100570.07
2018-12-21T07:08:18.763Z,100566.62
2018-12-21T07:10:47.547Z,100563.50
2018-12-21T07:13:16.322Z,100555.90
2018-12-21T07:15:45.272Z,100553.14
2018-12-21T07:18:13.958Z,100547.86
2018-12-21T07:20:42.667Z,100548.08
2018-12-21T07:23:11.495Z,100541.03
2018-12-21T07:25:40.217Z,100538.06
2018-12-21T07:28:08.982Z,100533.41
2018-12-21T07:30:37.858Z,100533.61
2018-12-21T07:33:06.563Z,100530.77
2018-12-21T07:35:35.280Z,100524.13
2018-12-21T07:38:04.136Z,100522.98
2018-12-21T07:40:32.794Z,100510.84
2018-12-21T07:43:01.532Z,100503.73
2018-12-21T07:45:30.386Z,100505.16
2018-12-21T07:47:59.104Z,100503.33
2018-12-21T07:50:27.818Z,100502.28
2018-12-21T07:52:56.634Z,100501.42
2018-12-21T07:55:25.448Z,100493.35
2018-12-21T07:57:54.132Z,100487.89
2018-12-21T08:00:23.762Z,100479.45
2018-12-21T08:02:52.544Z,100479.06
2018-12-21T08:05:21.301Z,100482.79
2018-12-21T08:07:50.072Z,100482.23
2018-12-21T08:10:20.286Z,100482.89
2018-12-21T08:12:48.972Z,100481.77
2018-12-21T08:15:17.864Z,100480.25
2018-12-21T08:17:46.548Z,100465.52
2018-12-21T08:20:15.230Z,100462.47
2018-12-21T08:22:44.049Z,100460.45
2018-12-21T08:25:12.795Z,100461.11
2018-12-21T08:27:41.664Z,100447.89
2018-12-21T08:30:11.103Z,100450.37
2018-12-21T08:32:39.894Z,100443.08
2018-12-21T08:35:08.734Z,100439.28
2018-12-21T08:37:37.504Z,100437.70
2018-12-21T08:40:08.517Z,100434.64
2018-12-21T08:42:37.401Z,100432.64
2018-12-21T08:45:08.880Z,100429.77
2018-12-21T08:47:37.847Z,100424.64
2018-12-21T08:50:09.527Z,100418.00
2018-12-21T08:52:38.228Z,100403.95
2018-12-21T08:55:07.720Z,100390.11
2018-12-21T08:57:36.876Z,100391.59
2018-12-21T09:00:07.996Z,100372.64
2018-12-21T09:02:36.684Z,100376.27
2018-12-21T09:05:05.715Z,100372.56
2018-12-21T09:07:34.497Z,100361.70
2018-12-21T09:10:03.292Z,100358.94
2018-12-21T09:12:32.071Z,100349.43
2018-12-21T09:15:00.932Z,100347.29
2018-12-21T09:17:29.843Z,100340.97
2018-12-21T09:19:58.742Z,100330.23
2018-12-21T09:22:27.437Z,100329.67
2018-12-21T09:24:56.184Z,100319.26
2018-12-21T09:27:25.107Z,100316.72
2018-12-21T09:29:53.888Z,100310.23
2018-12-21T09:32:22.740Z,100309.78
2018-12-21T09:34:51.556Z,100293.38
2018-12-21T09:37:20.253Z,100286.28
2018-12-21T09:39:48.940Z,100284.28
2018-12-21T09:42:17.795Z,100278.77
2018-12-21T09:44:52.424Z,100282.95
2018-12-21T09:47:17.708Z,100274.16
2018-12-21T09:49:46.755Z,100273.75
2018-12-21T09:52:15.672Z,100263.13
2018-12-21T09:54:44.380Z,100260.66
2018-12-21T09:57:13.168Z,100247.56
2018-12-21T09:59:41.826Z,100251.34
2018-12-21T10:02:10.489Z,100231.41
2018-12-21T10:04:39.281Z,100233.03
2018-12-21T10:07:07.959Z,100226.40
2018-12-21T10:09:36.603Z,100218.58
2018-12-21T10:12:05.344Z,100214.71
2018-12-21T10:14:34.073Z,100206.47
2018-12-21T10:17:02.792Z,100197.73
2018-12-21T10:19:31.869Z,100200.48
2018-12-21T10:22:00.604Z,100192.87
2018-12-21T10:24:29.378Z,100190.97
2018-12-21T10:26:58.274Z,100180.35
2018-12-21T10:29:27.068Z,100168.59
2018-12-21T10:31:55.851Z,100162.78
2018-12-21T10:34:25.628Z,100160.13
2018-12-21T10:36:54.317Z,100149.89
2018-12-21T10:39:23.401Z,100145.23
2018-12-21T10:41:52.143Z,100138.77
2018-12-21T10:44:20.797Z,100130.19
2018-12-21T10:46:49.502Z,100129.55
2018-12-21T10:49:18.243Z,100115.76
2018-12-21T10:51:46.965Z,100108.17
2018-12-21T10:54:15.818Z,100102.56
2018-12-21T10:56:44.630Z,100092.92
2018-12-21T10:59:20.937Z,100091.28
2018-12-21T11:01:44.047Z,100081.22
2018-12-21T11:04:13.038Z,100078.67
2018-12-21T11:06:41.808Z,100074.00
2018-12-21T11:09:10.467Z,100071.81
2018-12-21T11:11:39.243Z,100061.11
2018-12-21T11:14:07.928Z,100056.44
2018-12-21T11:16:36.735Z,100047.42
2018-12-21T11:19:05.492Z,100030.93
2018-12-21T11:21:34.156Z,100022.38
2018-12-21T11:24:02.846Z,100012.86
2018-12-21T11:26:31.652Z,100007.08
2018-12-21T11:29:00.372Z,100002.77
2018-12-21T11:31:29.299Z,99997.95
2018-12-21T11:33:58.248Z,99983.63
2018-12-21T11:36:27.001Z,99970.66
2018-12-21T11:38:55.668Z,99972.68
2018-12-21T11:41:24.489Z,99959.56
2018-12-21T11:43:53.201Z,99949.91
2018-12-21T11:46:21.883Z,99937.37
2018-12-21T11:48:51.007Z,99935.24
2018-12-21T11:51:19.691Z,99928.19
2018-12-21T11:53:48.516Z,99920.92
2018-12-21T11:56:17.304Z,99909.47
2018-12-21T11:58:45.987Z,99910.63
2018-12-21T12:01:14.675Z,99901.37
2018-12-21T12:03:43.514Z,99894.91
2018-12-21T12:06:12.150Z,99880.98
2018-12-21T12:08:42.047Z,99879.33
2018-12-21T12:11:10.778Z,99877.41
2018-12-21T12:13:39.461Z,99860.60
2018-12-21T12:16:08.149Z,99853.59
2018-12-21T12:18:36.886Z,99848.53
2018-12-21T12:21:05.619Z,99842.39
2018-12-21T12:23:34.289Z,99835.94
2018-12-21T12:26:03.101Z,99835.52
2018-12-21T12:28:31.861Z,99823.78
2018-12-21T12:31:00.604Z,99819.19
2018-12-21T12:33:29.307Z,99814.31
2018-12-21T12:35:57.973Z,99809.75
2018-12-21T12:38:26.636Z,99803.13
2018-12-21T12:40:55.694Z,99803.71
2018-12-21T12:43:24.585Z,99794.80
2018-12-21T12:45:53.312Z,99784.11
2018-12-21T12:48:22.205Z,99773.95
2018-12-21T12:50:50.912Z,99774.98
2018-12-21T12:53:19.627Z,99765.98
2018-12-21T12:55:48.771Z,99765.57
2018-12-21T12:58:17.502Z,99759.34
2018-12-21T13:00:46.148Z,99744.97
2018-12-21T13:03:15.290Z,99741.73
2018-12-21T13:05:44.107Z,99736.47
2018-12-21T13:08:12.873Z,99726.26
2018-12-21T13:10:41.959Z,99721.63
2018-12-21T13:13:11.273Z,99711.13
2018-12-21T13:15:40.096Z,99706.23
2018-12-21T13:18:08.870Z,99698.71
2018-12-21T13:20:37.722Z,99692.81
2018-12-21T13:23:06.441Z,99683.91
2018-12-21T13:25:35.211Z,99679.06
2018-12-21T13:28:04.064Z,99675.38
2018-12-21T13:30:32.889Z,99666.55
2018-12-21T13:33:01.600Z,99660.80
2018-12-21T13:35:30.247Z,99656.16
2018-12-21T13:37:58.987Z,99655.69
2018-12-21T13:40:28.145Z,99642.75
2018-12-21T13:42:56.961Z,99642.68
2018-12-21T13:45:25.823Z,99628.45
2018-12-21T13:47:54.815Z,99623.41
2018-12-21T13:50:23.700Z,99623.41
2018-12-21T13:52:52.471Z,99612.83
2018-12-21T13:55:21.688Z,99608.15
2018-12-21T13:57:50.510Z,99600.61
2018-12-21T14:00:19.168Z,99602.05
2018-12-21T14:02:47.968Z,99600.21
2018-12-21T14:05:16.645Z,99590.75
2018-12-21T14:07:45.280Z,99583.93
2018-12-21T14:10:14.119Z,99580.53
2018-12-21T14:12:42.917Z,99579.75
2018-12-21T14:15:12.037Z,99577.56
2018-12-21T14:17:40.792Z,99576.89
2018-12-21T14:20:11.685Z,99571.73
2018-12-21T14:22:40.392Z,99564.94
2018-12-21T14:25:09.788Z,99558.97
2018-12-21T14:27:38.536Z,99564.52
2018-12-21T14:30:08.841Z,99563.97
2018-12-21T14:32:37.655Z,99564.39
2018-12-21T14:35:07.432Z,99560.50
2018-12-21T14:37:37.002Z,99553.94
2018-12-21T14:40:06.292Z,99548.11
2018-12-21T14:42:35.186Z,99548.55
2018-12-21T14:45:04.179Z,99543.34
2018-12-21T14:47:33.155Z,99539.59
2018-12-21T14:50:02.114Z,99537.64
2018-12-21T14:52:31.248Z,99535.14
2018-12-21T14:55:00.473Z,99527.17
2018-12-21T14:57:29.178Z,99515.22
2018-12-21T14:59:59.275Z,99514.80
2018-12-21T15:02:28.124Z,99503.47
2018-12-21T15:04:57.089Z,99498.91
2018-12-21T15:07:26.983Z,99494.88
2018-12-21T15:09:55.721Z,99488.59
2018-12-21T15:12:24.400Z,99486.03
2018-12-21T15:14:53.204Z,99491.88
2018-12-21T15:17:23.373Z,99478.62
2018-12-21T15:19:52.475Z,99472.94
2018-12-21T15:22:21.170Z,99476.30
2018-12-21T15:24:50.043Z,99469.45
2018-12-21T15:27:18.736Z,99462.84
2018-12-21T15:29:47.451Z,99457.59
2018-12-21T15:32:16.228Z,99454.70
2018-12-21T15:34:44.887Z,99453.10
2018-12-21T15:37:13.593Z,99447.64
2018-12-21T15:39:42.491Z,99450.21
2018-12-21T15:42:12.091Z,99446.91
2018-12-21T15:44:40.801Z,99441.95
2018-12-21T15:47:09.611Z,99437.87
2018-12-21T15:49:38.281Z,99432.21
2018-12-21T15:52:06.915Z,99433.06
2018-12-21T15:54:35.645Z,99425.66
2018-12-21T15:57:04.470Z,99437.11
2018-12-21T15:59:33.162Z,99432.30
2018-12-21T16:02:02.212Z,99427.75
2018-12-21T16:04:30.884Z,99421.89
2018-12-21T16:06:59.577Z,99436.91
2018-12-21T16:09:28.292Z,99427.09
2018-12-21T16:11:56.977Z,99424.55
2018-12-21T16:14:34.042Z,99415.13
2018-12-21T16:16:56.677Z,99409.84
2018-12-21T16:19:25.325Z,99418.67
2018-12-21T16:21:53.989Z,99414.22
2018-12-21T16:24:22.803Z,99411.92
2018-12-21T16:26:51.520Z,99422.20
2018-12-21T16:29:20.169Z,99410.13
2018-12-21T16:31:48.855Z,99402.52
2018-12-21T16:34:17.499Z,99394.41
2018-12-21T16:36:46.192Z,99392.13
2018-12-21T16:39:15.075Z,99380.56
2018-12-21T16:41:43.770Z,99379.59
2018-12-21T16:44:12.472Z,99398.00
2018-12-21T16:46:42.284Z,99388.92
2018-12-21T16:49:10.951Z,99379.02
2018-12-21T16:51:39.681Z,99368.85
2018-12-21T16:54:08.539Z,99371.89
2018-12-21T16:56:37.200Z,99371.41
2018-12-21T16:59:05.911Z,99370.56
2018-12-21T17:01:34.733Z,99376.95
2018-12-21T17:04:03.567Z,99360.13
2018-12-21T17:06:32.256Z,99357.47
2018-12-21T17:09:01.086Z,99354.93
2018-12-21T17:11:29.789Z,99350.14
2018-12-21T17:13:58.544Z,99350.59
2018-12-21T17:16:27.404Z,99350.22
2018-12-21T17:18:56.143Z,99341.17
2018-12-21T17:21:25.841Z,99343.80
2018-12-21T17:23:54.680Z,99346.95
2018-12-21T17:26:23.468Z,99340.17
2018-12-21T17:28:52.212Z,99337.01
2018-12-21T17:31:21.060Z,99335.39
2018-12-21T17:33:49.887Z,99328.72
2018-12-21T17:36:18.697Z,99332.97
2018-12-21T17:38:47.491Z,99327.16
2018-12-21T17:41:16.236Z,99328.64
2018-12-21T17:43:44.933Z,99328.58
2018-12-21T17:46:13.660Z,99324.04
2018-12-21T17:48:42.393Z,99320.34
2018-12-21T17:51:11.083Z,99328.33
2018-12-21T17:53:39.814Z,99327.84
2018-12-21T17:56:08.581Z,99325.58
2018-12-21T17:58:37.271Z,99319.72
2018-12-21T18:01:07.082Z,99321.94
2018-12-21T18:03:46.699Z,99325.05
2018-12-21T18:06:15.552Z,99323.84
2018-12-21T18:08:44.272Z,99330.09
2018-12-21T18:11:13.136Z,99324.37
2018-12-21T18:13:42.436Z,99325.94
2018-12-21T18:16:11.214Z,99325.98
2018-12-21T18:18:40.038Z,99334.10
2018-12-21T18:21:08.885Z,99335.19
2018-12-21T18:23:38.576Z,99330.90
2018-12-21T18:26:07.295Z,99331.95
2018-12-21T18:28:36.189Z,99332.23
2018-12-21T18:31:42.842Z,99332.61
2018-12-21T18:34:16.332Z,99339.00
2018-12-21T18:36:45.052Z,99338.81
2018-12-21T18:39:13.757Z,99341.23
2018-12-21T18:41:42.588Z,99335.90
2018-12-21T18:44:12.236Z,99336.09
2018-12-21T18:46:41.069Z,99345.58
2018-12-21T18:49:09.940Z,99350.53
2018-12-21T18:51:38.675Z,99343.63
2018-12-21T18:54:07.350Z,99356.34
2018-12-21T18:56:47.168Z,99349.86
2018-12-21T18:59:12.338Z,99355.82
2018-12-21T19:01:41.000Z,99355.91
2018-12-21T19:04:09.805Z,99364.50
2018-12-21T19:06:38.954Z,99355.48
2018-12-21T19:09:07.692Z,99359.39
2018-12-21T19:11:36.434Z,99366.06
2018-12-21T19:14:05.187Z,99362.26
2018-12-21T19:16:33.971Z,99358.30
2018-12-21T19:19:03.108Z,99357.39
2018-12-21T19:21:32.167Z,99369.19
2018-12-21T19:24:00.959Z,99364.30
2018-12-21T19:26:30.093Z,99361.29
2018-12-21T19:28:58.863Z,99363.34
2018-12-21T19:31:27.728Z,99372.91
2018-12-21T19:33:56.597Z,99365.91
2018-12-21T19:36:25.715Z,99357.19
2018-12-21T19:38:54.374Z,99366.35
2018-12-21T19:41:23.358Z,99365.84
2018-12-21T19:43:52.153Z,99381.02
2018-12-21T19:46:20.934Z,99378.52
2018-12-21T19:48:49.758Z,99377.23
2018-12-21T19:51:18.615Z,99378.42
2018-12-21T19:53:48.270Z,99395.62
2018-12-21T19:57:24.939Z,99392.00
2018-12-21T19:59:53.705Z,99397.50
2018-12-21T20:02:22.464Z,99373.77
2018-12-21T20:04:51.423Z,99393.09
2018-12-21T20:07:20.221Z,99384.06
2018-12-21T20:09:49.032Z,99389.50
2018-12-21T20:12:17.988Z,99391.72
2018-12-21T20:14:47.178Z,99396.48
2018-12-21T20:17:15.990Z,99402.73
2018-12-21T20:19:44.874Z,99404.14
2018-12-21T20:22:13.651Z,99414.39
2018-12-21T20:24:42.579Z,99413.80
2018-12-21T20:27:14.189Z,99415.42
2018-12-21T20:29:43.397Z,99426.36
2018-12-21T20:32:12.516Z,99415.74
2018-12-21T20:34:41.497Z,99407.19
2018-12-21T20:37:10.258Z,99422.25
2018-12-21T20:39:42.191Z,99417.66
2018-12-21T20:42:11.005Z,99425.24
2018-12-21T20:44:39.797Z,99439.64
2018-12-21T20:47:08.794Z,99431.16
2018-12-21T20:49:37.608Z,99453.23
2018-12-21T20:52:06.366Z,99448.41
2018-12-21T20:54:35.332Z,99462.60
2018-12-21T20:57:05.552Z,99467.30
2018-12-21T20:59:34.379Z,99471.94
2018-12-21T21:02:03.284Z,99480.03
2018-12-21T21:04:32.126Z,99490.95
2018-12-21T21:07:00.801Z,99509.11
2018-12-21T21:09:29.826Z,99508.60
2018-12-21T21:11:58.631Z,99516.50
2018-12-21T21:14:27.416Z,99522.42
2018-12-21T21:16:56.334Z,99529.28
2018-12-21T21:19:26.904Z,99551.13
2018-12-21T21:21:55.602Z,99554.77
2018-12-21T21:24:26.703Z,99549.30
2018-12-21T21:26:55.222Z,99564.66
2018-12-21T21:29:23.985Z,99569.73
2018-12-21T21:31:52.873Z,99592.83
2018-12-21T21:34:21.791Z,99592.28
2018-12-21T21:36:50.456Z,99588.20
2018-12-21T21:39:19.443Z,99597.74
2018-12-21T21:41:48.118Z,99624.20
2018-12-21T21:44:18.411Z,99636.08
2018-12-21T21:46:47.479Z,99626.13
2018-12-21T21:49:16.247Z,99625.63
2018-12-21T21:51:44.879Z,99626.27
2018-12-21T21:54:13.916Z,99637.17
2018-12-21T21:56:42.668Z,99631.33
2018-12-21T21:59:12.320Z,99653.20
2018-12-21T22:01:41.466Z,99661.62
2018-12-21T22:04:10.100Z,99656.92
2018-12-21T22:06:38.808Z,99667.53
2018-12-21T22:09:08.108Z,99667.06
2018-12-21T22:11:36.964Z,99690.20
2018-12-21T22:14:05.644Z,99685.12
2018-12-21T22:16:34.472Z,99703.03
2018-12-21T22:19:03.136Z,99700.84
2018-12-21T22:21:31.999Z,99698.62
2018-12-21T22:24:00.873Z,99707.53
2018-12-21T22:26:29.591Z,99719.27
2018-12-21T22:28:58.616Z,99714.73
2018-12-21T22:31:27.689Z,99744.84
2018-12-21T22:33:56.362Z,99741.84
2018-12-21T22:36:25.220Z,99737.88
2018-12-21T22:38:53.975Z,99740.78
2018-12-21T22:41:22.768Z,99744.26
2018-12-21T22:43:51.507Z,99751.49
2018-12-21T22:46:20.395Z,99768.70
2018-12-21T22:48:49.075Z,99774.30
2018-12-21T22:51:17.812Z,99778.80
2018-12-21T22:53:46.656Z,99788.30
2018-12-21T22:56:15.317Z,99795.92
2018-12-21T22:58:47.253Z,99801.98
2018-12-21T23:01:16.068Z,99812.84
2018-12-21T23:03:44.716Z,99814.14
2018-12-21T23:06:13.405Z,99821.14
2018-12-21T23:08:42.618Z,99834.48
2018-12-21T23:11:11.284Z,99827.21
2018-12-21T23:13:40.220Z,99834.66
2018-12-21T23:16:09.021Z,99848.45
2018-12-21T23:18:37.657Z,99839.71
2018-12-21T23:21:06.495Z,99847.91
2018-12-21T23:23:35.202Z,99847.69
2018-12-21T23:26:03.991Z,99860.98
2018-12-21T23:28:32.799Z,99858.27
2018-12-21T23:31:01.437Z,99881.09
2018-12-21T23:33:30.066Z,99868.04
2018-12-21T23:35:58.783Z,99888.73
2018-12-21T23:38:27.549Z,99881.84
2018-12-21T23:40:56.204Z,99888.59
2018-12-21T23:43:25.093Z,99897.09
2018-12-21T23:45:53.731Z,99904.11
2018-12-21T23:48:22.489Z,99896.19
2018-12-21T23:50:51.319Z,99904.69
2018-12-21T23:53:19.997Z,99913.41
2018-12-21T23:55:48.633Z,99923.19
2018-12-21T23:58:17.344Z,99935.14
